ACA807 EGPH-CYYZ
Flight info
| Callsign | ACA807 |
|---|---|
| Flight time | N/A |
| Altitude | 36000 |
| Route | GOSAM P600 FENIK DCT NORBO DCT MAC DCT MOLAK DCT RILED DCT TOBOR/M082F380 DCT 5230N02000W 5130N03000W 5030N04000W 4930N05000W DCT IBERG/N0472F400 N376B MIILS Q907 AGNOB DCT UDNOX RAGID6 |
| Aircraft | A333/H-SDE3GHIJ2J3J5M1RVWXY/LB2D1 |
Departure
| Time | 2026-05-01 09:35 |
|---|---|
| Airport | Edinburgh Airport (EGPH) |
Arrival
| Time | N/A |
|---|---|
| Airport | Toronto Pearson International Airport (CYYZ) |
| Time | Latitude | Longitude | Altitude | Speed | Heading |
|---|---|---|---|---|---|
| 2026-05-01 09:16 | 55.94884 | -3.35957 | 110 ft | 0 kts | 239° |
| 2026-05-01 09:28 | 55.94891 | -3.35937 | 110 ft | 9 kts | 239° |
| 2026-05-01 09:29 | 55.94920 | -3.35853 | 110 ft | 1 kts | 239° |
| 2026-05-01 09:29 | 55.94930 | -3.35823 | 111 ft | 2 kts | 241° |
| 2026-05-01 09:30 | 55.94944 | -3.35847 | 111 ft | 0 kts | 353° |
| 2026-05-01 09:32 | 55.95011 | -3.35859 | 110 ft | 10 kts | 356° |
| 2026-05-01 09:32 | 55.95089 | -3.35873 | 109 ft | 11 kts | 344° |
| 2026-05-01 09:33 | 55.95155 | -3.35929 | 108 ft | 8 kts | 332° |
| 2026-05-01 09:33 | 55.95209 | -3.35951 | 108 ft | 7 kts | 12° |
| 2026-05-01 09:33 | 55.95303 | -3.35775 | 108 ft | 9 kts | 57° |
| 2026-05-01 09:34 | 55.95346 | -3.35653 | 107 ft | 18 kts | 58° |
| 2026-05-01 09:34 | 55.95433 | -3.35447 | 106 ft | 18 kts | 30° |
| 2026-05-01 09:34 | 55.95473 | -3.35869 | 105 ft | 64 kts | 238° |
| 2026-05-01 09:35 | 55.95103 | -3.36954 | 105 ft | 136 kts | 238° |
| 2026-05-01 09:35 | 55.93840 | -3.40678 | 997 ft | 186 kts | 236° |
| 2026-05-01 09:35 | 55.93183 | -3.42533 | 2032 ft | 179 kts | 237° |
| 2026-05-01 09:36 | 55.92504 | -3.44483 | 2685 ft | 197 kts | 237° |
| 2026-05-01 09:36 | 55.91781 | -3.46579 | 3109 ft | 206 kts | 237° |
| 2026-05-01 09:36 | 55.91008 | -3.48818 | 3442 ft | 220 kts | 237° |
| 2026-05-01 09:36 | 55.90377 | -3.51377 | 3763 ft | 238 kts | 258° |
| 2026-05-01 09:37 | 55.90105 | -3.54362 | 4121 ft | 253 kts | 258° |
| 2026-05-01 09:37 | 55.89476 | -3.60701 | 5317 ft | 264 kts | 258° |
| 2026-05-01 09:37 | 55.89155 | -3.63901 | 5944 ft | 268 kts | 258° |
| 2026-05-01 09:38 | 55.88491 | -3.70514 | 5962 ft | 267 kts | 257° |
| 2026-05-01 09:38 | 55.88163 | -3.73763 | 5990 ft | 267 kts | 257° |
| 2026-05-01 09:38 | 55.87838 | -3.76973 | 5980 ft | 266 kts | 257° |
| 2026-05-01 09:39 | 55.87192 | -3.83448 | 5978 ft | 265 kts | 257° |
| 2026-05-01 09:39 | 55.86871 | -3.86686 | 5981 ft | 266 kts | 257° |
| 2026-05-01 09:39 | 55.86547 | -3.89930 | 5983 ft | 266 kts | 257° |
| 2026-05-01 09:40 | 55.86227 | -3.93123 | 5980 ft | 266 kts | 257° |
| 2026-05-01 09:40 | 55.85578 | -3.99579 | 5980 ft | 266 kts | 257° |
| 2026-05-01 09:40 | 55.85253 | -4.02804 | 5982 ft | 266 kts | 257° |
| 2026-05-01 09:41 | 55.84927 | -4.06037 | 5978 ft | 266 kts | 257° |
| 2026-05-01 09:41 | 55.83846 | -4.12246 | 5999 ft | 262 kts | 240° |
| 2026-05-01 09:41 | 55.82771 | -4.14802 | 5973 ft | 260 kts | 221° |
| 2026-05-01 09:42 | 55.81371 | -4.16852 | 5992 ft | 259 kts | 216° |
| 2026-05-01 09:42 | 55.79914 | -4.18727 | 5989 ft | 259 kts | 214° |
| 2026-05-01 09:42 | 55.76923 | -4.22457 | 6732 ft | 265 kts | 214° |
| 2026-05-01 09:43 | 55.73970 | -4.26139 | 8136 ft | 265 kts | 214° |
| 2026-05-01 09:43 | 55.72476 | -4.27997 | 8757 ft | 267 kts | 214° |
| 2026-05-01 09:43 | 55.71206 | -4.30389 | 9334 ft | 274 kts | 239° |
| 2026-05-01 09:44 | 55.69194 | -4.36019 | 10356 ft | 280 kts | 214° |
| 2026-05-01 09:44 | 55.67380 | -4.37416 | 10552 ft | 296 kts | 192° |
| 2026-05-01 09:44 | 55.65327 | -4.38406 | 10746 ft | 313 kts | 201° |
| 2026-05-01 09:45 | 55.63311 | -4.40113 | 10927 ft | 331 kts | 208° |
| 2026-05-01 09:45 | 55.59502 | -4.45032 | 11825 ft | 350 kts | 231° |
| 2026-05-01 09:45 | 55.58403 | -4.48881 | 12389 ft | 359 kts | 251° |
| 2026-05-01 09:46 | 55.58064 | -4.53273 | 12939 ft | 367 kts | 266° |
| 2026-05-01 09:46 | 55.58169 | -4.57789 | 13472 ft | 373 kts | 272° |
| 2026-05-01 09:46 | 55.58443 | -4.62348 | 13998 ft | 377 kts | 274° |
| 2026-05-01 09:46 | 55.58797 | -4.66900 | 14501 ft | 381 kts | 275° |
| 2026-05-01 09:47 | 55.59195 | -4.71572 | 15067 ft | 383 kts | 275° |
| 2026-05-01 09:47 | 55.59389 | -4.76190 | 15523 ft | 381 kts | 262° |
| 2026-05-01 09:47 | 55.58785 | -4.80722 | 16018 ft | 378 kts | 248° |
| 2026-05-01 09:47 | 55.57966 | -4.85131 | 16529 ft | 381 kts | 249° |
| 2026-05-01 09:48 | 55.57148 | -4.89572 | 17021 ft | 383 kts | 248° |
| 2026-05-01 09:48 | 55.56327 | -4.94026 | 17493 ft | 386 kts | 248° |
| 2026-05-01 09:48 | 55.55497 | -4.98527 | 17958 ft | 389 kts | 248° |
| 2026-05-01 09:48 | 55.54663 | -5.03043 | 18397 ft | 391 kts | 248° |
| 2026-05-01 09:49 | 55.53820 | -5.07592 | 18854 ft | 394 kts | 248° |
| 2026-05-01 09:49 | 55.52963 | -5.12200 | 19301 ft | 396 kts | 248° |
| 2026-05-01 09:49 | 55.52108 | -5.16792 | 19754 ft | 398 kts | 248° |
| 2026-05-01 09:49 | 55.51245 | -5.21424 | 20181 ft | 400 kts | 248° |
| 2026-05-01 09:50 | 55.50369 | -5.26102 | 20581 ft | 403 kts | 248° |
| 2026-05-01 09:50 | 55.49498 | -5.30754 | 20987 ft | 405 kts | 248° |
| 2026-05-01 09:50 | 55.48606 | -5.35492 | 21376 ft | 407 kts | 248° |
| 2026-05-01 09:50 | 55.47716 | -5.40212 | 21759 ft | 409 kts | 248° |
| 2026-05-01 09:51 | 55.46827 | -5.44921 | 22129 ft | 411 kts | 248° |
| 2026-05-01 09:51 | 55.45918 | -5.49720 | 22535 ft | 412 kts | 248° |
| 2026-05-01 09:51 | 55.45013 | -5.54486 | 22874 ft | 415 kts | 248° |
| 2026-05-01 09:51 | 55.44096 | -5.59301 | 23224 ft | 417 kts | 248° |
| 2026-05-01 09:52 | 55.43177 | -5.64113 | 23586 ft | 419 kts | 248° |
| 2026-05-01 09:52 | 55.42245 | -5.68968 | 23948 ft | 421 kts | 247° |
| 2026-05-01 09:52 | 55.41306 | -5.73847 | 24311 ft | 422 kts | 247° |
| 2026-05-01 09:52 | 55.40367 | -5.78714 | 24615 ft | 425 kts | 247° |
| 2026-05-01 09:53 | 55.39414 | -5.83638 | 24880 ft | 428 kts | 247° |
| 2026-05-01 09:53 | 55.38450 | -5.88606 | 25246 ft | 429 kts | 247° |
| 2026-05-01 09:53 | 55.37483 | -5.93585 | 25614 ft | 431 kts | 247° |
| 2026-05-01 09:53 | 55.36523 | -5.98506 | 25871 ft | 434 kts | 247° |
| 2026-05-01 09:54 | 55.35541 | -6.03530 | 26217 ft | 435 kts | 247° |
| 2026-05-01 09:54 | 55.34553 | -6.08571 | 26532 ft | 437 kts | 247° |
| 2026-05-01 09:54 | 55.33569 | -6.13577 | 26799 ft | 439 kts | 247° |
| 2026-05-01 09:54 | 55.32576 | -6.18620 | 27118 ft | 441 kts | 247° |
| 2026-05-01 09:55 | 55.31559 | -6.23758 | 27392 ft | 443 kts | 247° |
| 2026-05-01 09:55 | 55.30559 | -6.28816 | 27671 ft | 445 kts | 247° |
| 2026-05-01 09:55 | 55.29536 | -6.33968 | 27968 ft | 447 kts | 247° |
| 2026-05-01 09:55 | 55.28513 | -6.39097 | 28233 ft | 449 kts | 247° |
| 2026-05-01 09:56 | 55.27493 | -6.44209 | 28490 ft | 450 kts | 247° |
| 2026-05-01 09:56 | 55.26451 | -6.49419 | 28724 ft | 452 kts | 247° |
| 2026-05-01 09:56 | 55.25407 | -6.54624 | 28948 ft | 454 kts | 247° |
| 2026-05-01 09:56 | 55.24366 | -6.59794 | 29180 ft | 456 kts | 246° |
| 2026-05-01 09:57 | 55.23312 | -6.65019 | 29414 ft | 457 kts | 246° |
| 2026-05-01 09:57 | 55.22247 | -6.70285 | 29710 ft | 456 kts | 246° |
| 2026-05-01 09:57 | 55.21195 | -6.75471 | 30050 ft | 455 kts | 246° |
| 2026-05-01 09:57 | 55.20134 | -6.80696 | 30321 ft | 455 kts | 245° |
| 2026-05-01 09:58 | 55.19075 | -6.85888 | 30568 ft | 456 kts | 246° |
| 2026-05-01 09:58 | 55.18007 | -6.91106 | 30859 ft | 456 kts | 245° |
| 2026-05-01 09:58 | 55.16950 | -6.96264 | 31181 ft | 454 kts | 245° |
| 2026-05-01 09:58 | 55.15890 | -7.01422 | 31480 ft | 453 kts | 245° |
| 2026-05-01 09:59 | 55.14824 | -7.06600 | 31763 ft | 453 kts | 245° |
| 2026-05-01 09:59 | 55.13750 | -7.11798 | 32036 ft | 452 kts | 245° |
| 2026-05-01 09:59 | 55.12688 | -7.16926 | 32270 ft | 452 kts | 245° |
| 2026-05-01 09:59 | 55.11626 | -7.22046 | 32571 ft | 450 kts | 245° |
| 2026-05-01 10:00 | 55.10560 | -7.27165 | 32792 ft | 451 kts | 245° |
| 2026-05-01 10:00 | 55.09496 | -7.32262 | 33010 ft | 450 kts | 245° |
| 2026-05-01 10:00 | 55.08419 | -7.37409 | 33234 ft | 450 kts | 245° |
| 2026-05-01 10:00 | 55.07348 | -7.42521 | 33463 ft | 450 kts | 245° |
| 2026-05-01 10:01 | 55.06289 | -7.47557 | 33657 ft | 450 kts | 245° |
| 2026-05-01 10:01 | 55.05203 | -7.52701 | 33879 ft | 449 kts | 245° |
| 2026-05-01 10:01 | 55.04134 | -7.57766 | 34123 ft | 448 kts | 245° |
| 2026-05-01 10:01 | 55.03062 | -7.62828 | 34321 ft | 448 kts | 245° |
| 2026-05-01 10:02 | 55.01982 | -7.67908 | 34560 ft | 446 kts | 244° |
| 2026-05-01 10:02 | 55.00911 | -7.72938 | 34733 ft | 445 kts | 244° |
| 2026-05-01 10:02 | 54.99837 | -7.77971 | 34897 ft | 445 kts | 244° |
| 2026-05-01 10:02 | 54.98759 | -7.83008 | 35049 ft | 444 kts | 244° |
| 2026-05-01 10:03 | 54.97686 | -7.88010 | 35183 ft | 445 kts | 244° |
| 2026-05-01 10:03 | 54.96609 | -7.93021 | 35294 ft | 445 kts | 244° |
| 2026-05-01 10:03 | 54.95530 | -7.98024 | 35429 ft | 445 kts | 244° |
| 2026-05-01 10:03 | 54.94437 | -8.03079 | 35545 ft | 445 kts | 244° |
| 2026-05-01 10:04 | 54.93361 | -8.08053 | 35652 ft | 445 kts | 244° |
| 2026-05-01 10:04 | 54.92263 | -8.13106 | 35760 ft | 445 kts | 244° |
| 2026-05-01 10:04 | 54.90087 | -8.23087 | 35948 ft | 445 kts | 244° |
| 2026-05-01 10:05 | 54.88988 | -8.28116 | 36056 ft | 445 kts | 244° |
| 2026-05-01 10:05 | 54.87899 | -8.33084 | 36172 ft | 445 kts | 244° |
| 2026-05-01 10:05 | 54.86790 | -8.38129 | 36293 ft | 445 kts | 244° |
| 2026-05-01 10:05 | 54.85692 | -8.43118 | 36417 ft | 444 kts | 244° |
| 2026-05-01 10:06 | 54.84597 | -8.48068 | 36560 ft | 444 kts | 244° |
| 2026-05-01 10:06 | 54.83501 | -8.53027 | 36702 ft | 444 kts | 244° |
| 2026-05-01 10:06 | 54.82363 | -8.58033 | 36848 ft | 442 kts | 243° |
| 2026-05-01 10:06 | 54.81183 | -8.62873 | 36947 ft | 441 kts | 242° |
| 2026-05-01 10:07 | 54.79923 | -8.67687 | 37069 ft | 439 kts | 239° |
| 2026-05-01 10:07 | 54.78598 | -8.72410 | 37169 ft | 438 kts | 238° |
| 2026-05-01 10:07 | 54.77202 | -8.77060 | 37287 ft | 436 kts | 237° |
| 2026-05-01 10:07 | 54.75730 | -8.81640 | 37358 ft | 435 kts | 235° |
| 2026-05-01 10:08 | 54.72602 | -8.90470 | 37595 ft | 432 kts | 232° |
| 2026-05-01 10:08 | 54.71018 | -8.94898 | 37684 ft | 433 kts | 237° |
| 2026-05-01 10:09 | 54.68738 | -9.04556 | 37907 ft | 440 kts | 250° |
| 2026-05-01 10:09 | 54.68088 | -9.09665 | 38010 ft | 443 kts | 257° |
| 2026-05-01 10:09 | 54.67884 | -9.14958 | 38052 ft | 449 kts | 267° |
| 2026-05-01 10:10 | 54.67569 | -9.25664 | 38066 ft | 444 kts | 253° |
| 2026-05-01 10:10 | 54.63939 | -9.40051 | 38065 ft | 441 kts | 242° |
| 2026-05-01 10:11 | 54.61459 | -9.49768 | 38041 ft | 443 kts | 237° |
| 2026-05-01 10:11 | 54.58011 | -9.58382 | 38044 ft | 441 kts | 230° |
| 2026-05-01 10:12 | 54.54358 | -9.66872 | 38056 ft | 443 kts | 229° |
| 2026-05-01 10:13 | 54.48837 | -9.79624 | 38036 ft | 446 kts | 229° |
| 2026-05-01 10:13 | 54.45143 | -9.88112 | 38047 ft | 448 kts | 229° |
| 2026-05-01 10:14 | 54.39538 | -10.00942 | 38066 ft | 450 kts | 229° |
| 2026-05-01 10:14 | 54.35789 | -10.09487 | 38043 ft | 451 kts | 229° |
| 2026-05-01 10:15 | 54.32025 | -10.18034 | 38054 ft | 452 kts | 229° |
| 2026-05-01 10:15 | 54.28247 | -10.26585 | 38070 ft | 453 kts | 230° |
| 2026-05-01 10:16 | 54.24448 | -10.35156 | 38078 ft | 454 kts | 230° |
| 2026-05-01 10:17 | 54.18726 | -10.48006 | 38034 ft | 458 kts | 230° |
| 2026-05-01 10:17 | 54.12974 | -10.60855 | 38042 ft | 458 kts | 230° |
| 2026-05-01 10:18 | 54.07177 | -10.73743 | 38036 ft | 458 kts | 229° |
| 2026-05-01 10:19 | 54.03308 | -10.82303 | 38040 ft | 458 kts | 229° |
| 2026-05-01 10:19 | 53.99437 | -10.90845 | 38045 ft | 458 kts | 229° |
| 2026-05-01 10:20 | 53.93607 | -11.03652 | 38035 ft | 458 kts | 229° |
| 2026-05-01 10:20 | 53.89713 | -11.12168 | 38037 ft | 458 kts | 229° |
| 2026-05-01 10:21 | 53.83847 | -11.24939 | 38046 ft | 460 kts | 230° |
| 2026-05-01 10:22 | 53.77948 | -11.37720 | 38043 ft | 461 kts | 230° |
| 2026-05-01 10:23 | 53.72044 | -11.50446 | 38023 ft | 463 kts | 229° |
| 2026-05-01 10:23 | 53.66067 | -11.63265 | 38024 ft | 465 kts | 230° |
| 2026-05-01 10:24 | 53.58089 | -11.80271 | 38021 ft | 466 kts | 229° |
| 2026-05-01 10:25 | 53.50051 | -11.97291 | 38019 ft | 467 kts | 229° |
| 2026-05-01 10:26 | 53.45996 | -12.05831 | 37981 ft | 469 kts | 229° |
| 2026-05-01 10:27 | 53.37881 | -12.22842 | 38048 ft | 470 kts | 229° |
| 2026-05-01 10:28 | 53.31741 | -12.35634 | 38026 ft | 472 kts | 229° |
| 2026-05-01 10:28 | 53.25568 | -12.48423 | 38011 ft | 472 kts | 230° |
| 2026-05-01 10:29 | 53.19407 | -12.61133 | 38028 ft | 473 kts | 230° |
| 2026-05-01 10:30 | 53.11116 | -12.78128 | 38010 ft | 473 kts | 229° |
| 2026-05-01 10:31 | 53.02818 | -12.95025 | 38005 ft | 474 kts | 229° |
| 2026-05-01 10:32 | 52.96556 | -13.07702 | 38001 ft | 475 kts | 229° |
| 2026-05-01 10:33 | 52.88184 | -13.24550 | 38009 ft | 476 kts | 229° |
| 2026-05-01 10:34 | 52.81890 | -13.37144 | 38012 ft | 477 kts | 229° |
| 2026-05-01 10:34 | 52.77678 | -13.45532 | 38014 ft | 477 kts | 230° |
| 2026-05-01 10:35 | 52.71324 | -13.58140 | 38019 ft | 478 kts | 230° |
| 2026-05-01 10:35 | 52.67084 | -13.66517 | 38020 ft | 478 kts | 229° |
| 2026-05-01 10:36 | 52.60699 | -13.79081 | 38016 ft | 478 kts | 229° |
| 2026-05-01 10:37 | 52.56439 | -13.87427 | 38015 ft | 478 kts | 229° |
| 2026-05-01 10:37 | 52.50857 | -14.00847 | 38027 ft | 479 kts | 248° |
| 2026-05-01 10:38 | 52.49294 | -14.11377 | 38024 ft | 479 kts | 266° |
| 2026-05-01 10:38 | 52.49752 | -14.22214 | 38033 ft | 479 kts | 278° |
| 2026-05-01 10:39 | 52.50071 | -14.33062 | 38030 ft | 480 kts | 271° |
| 2026-05-01 10:39 | 52.50102 | -14.43979 | 38030 ft | 481 kts | 270° |
| 2026-05-01 10:40 | 52.50105 | -14.54898 | 38027 ft | 481 kts | 271° |
| 2026-05-01 10:40 | 52.50095 | -14.65819 | 38042 ft | 482 kts | 270° |
| 2026-05-01 10:41 | 52.50075 | -14.76771 | 38042 ft | 482 kts | 270° |
| 2026-05-01 10:42 | 52.50027 | -14.93209 | 38045 ft | 482 kts | 270° |
| 2026-05-01 10:42 | 52.50054 | -15.04145 | 38057 ft | 481 kts | 274° |
| 2026-05-01 10:43 | 52.50307 | -15.15064 | 38058 ft | 482 kts | 273° |
| 2026-05-01 10:43 | 52.50520 | -15.25994 | 38066 ft | 481 kts | 273° |
| 2026-05-01 10:44 | 52.50722 | -15.36928 | 38061 ft | 481 kts | 273° |
| 2026-05-01 10:44 | 52.50913 | -15.47858 | 38073 ft | 481 kts | 273° |
| 2026-05-01 10:45 | 52.51094 | -15.58773 | 38080 ft | 481 kts | 273° |